sensor_id;sensor_type;location;lat;lon;timestamp;P1;durP1;ratioP1;P2;durP2;ratioP2
75427;SDS011;64008;55.612;37.698;2022-10-17T00:00:35;7.45;;;2.45;;
75427;SDS011;64008;55.612;37.698;2022-10-17T00:03:00;6.95;;;3.10;;
75427;SDS011;64008;55.612;37.698;2022-10-17T00:05:26;4.38;;;1.73;;
75427;SDS011;64008;55.612;37.698;2022-10-17T00:07:52;5.25;;;2.17;;
75427;SDS011;64008;55.612;37.698;2022-10-17T00:10:18;4.85;;;2.05;;
75427;SDS011;64008;55.612;37.698;2022-10-17T00:12:43;6.00;;;2.90;;
75427;SDS011;64008;55.612;37.698;2022-10-17T00:15:09;7.00;;;2.22;;
75427;SDS011;64008;55.612;37.698;2022-10-17T00:17:38;5.28;;;1.80;;
75427;SDS011;64008;55.612;37.698;2022-10-17T00:20:04;2.10;;;1.02;;
75427;SDS011;64008;55.612;37.698;2022-10-17T00:22:30;4.45;;;2.35;;
75427;SDS011;64008;55.612;37.698;2022-10-17T00:24:55;8.57;;;2.55;;
75427;SDS011;64008;55.612;37.698;2022-10-17T00:27:21;6.15;;;2.22;;
75427;SDS011;64008;55.612;37.698;2022-10-17T00:29:47;6.00;;;2.25;;
75427;SDS011;64008;55.612;37.698;2022-10-17T00:32:13;5.45;;;2.22;;
75427;SDS011;64008;55.612;37.698;2022-10-17T00:34:39;8.43;;;2.95;;
75427;SDS011;64008;55.612;37.698;2022-10-17T00:37:04;5.65;;;1.90;;
75427;SDS011;64008;55.612;37.698;2022-10-17T00:39:30;7.22;;;2.15;;
75427;SDS011;64008;55.612;37.698;2022-10-17T00:41:55;5.57;;;2.45;;
75427;SDS011;64008;55.612;37.698;2022-10-17T00:46:58;6.22;;;2.40;;
75427;SDS011;64008;55.612;37.698;2022-10-17T00:49:30;5.75;;;2.15;;
75427;SDS011;64008;55.612;37.698;2022-10-17T00:52:02;6.55;;;2.28;;
75427;SDS011;64008;55.612;37.698;2022-10-17T00:54:33;4.63;;;2.08;;
75427;SDS011;64008;55.612;37.698;2022-10-17T00:57:01;8.88;;;2.15;;
75427;SDS011;64008;55.612;37.698;2022-10-17T00:59:28;4.85;;;2.13;;
75427;SDS011;64008;55.612;37.698;2022-10-17T01:02:00;6.28;;;2.53;;
75427;SDS011;64008;55.612;37.698;2022-10-17T01:04:28;7.63;;;2.45;;
75427;SDS011;64008;55.612;37.698;2022-10-17T01:06:54;2.45;;;1.08;;
75427;SDS011;64008;55.612;37.698;2022-10-17T01:09:19;5.95;;;2.58;;
75427;SDS011;64008;55.612;37.698;2022-10-17T01:11:49;2.03;;;0.88;;
75427;SDS011;64008;55.612;37.698;2022-10-17T01:22:39;6.25;;;2.40;;
75427;SDS011;64008;55.612;37.698;2022-10-17T01:38:37;6.85;;;2.55;;
75427;SDS011;64008;55.612;37.698;2022-10-17T01:41:23;7.38;;;3.03;;
75427;SDS011;64008;55.612;37.698;2022-10-17T01:44:02;5.50;;;2.35;;
75427;SDS011;64008;55.612;37.698;2022-10-17T01:46:37;6.72;;;2.10;;
75427;SDS011;64008;55.612;37.698;2022-10-17T01:49:05;7.07;;;2.83;;
75427;SDS011;64008;55.612;37.698;2022-10-17T01:51:37;7.47;;;2.97;;
75427;SDS011;64008;55.612;37.698;2022-10-17T01:56:40;7.65;;;3.38;;
75427;SDS011;64008;55.612;37.698;2022-10-17T01:59:10;6.68;;;3.25;;
75427;SDS011;64008;55.612;37.698;2022-10-17T02:01:42;7.63;;;3.25;;
75427;SDS011;64008;55.612;37.698;2022-10-17T02:04:09;5.85;;;3.10;;
75427;SDS011;64008;55.612;37.698;2022-10-17T02:06:35;6.47;;;2.70;;
75427;SDS011;64008;55.612;37.698;2022-10-17T02:09:01;6.40;;;2.70;;
75427;SDS011;64008;55.612;37.698;2022-10-17T02:11:44;6.78;;;2.88;;
75427;SDS011;64008;55.612;37.698;2022-10-17T02:25:38;7.13;;;3.03;;
75427;SDS011;64008;55.612;37.698;2022-10-17T02:31:24;5.32;;;1.92;;
75427;SDS011;64008;55.612;37.698;2022-10-17T02:33:33;3.72;;;1.52;;
75427;SDS011;64008;55.612;37.698;2022-10-17T02:36:05;5.28;;;2.65;;
75427;SDS011;64008;55.612;37.698;2022-10-17T02:38:37;7.75;;;3.25;;
75427;SDS011;64008;55.612;37.698;2022-10-17T02:41:06;7.15;;;2.92;;
75427;SDS011;64008;55.612;37.698;2022-10-17T02:43:35;7.13;;;3.25;;
75427;SDS011;64008;55.612;37.698;2022-10-17T02:46:02;6.20;;;2.92;;
75427;SDS011;64008;55.612;37.698;2022-10-17T02:48:39;9.43;;;3.35;;
75427;SDS011;64008;55.612;37.698;2022-10-17T02:51:19;7.25;;;3.15;;
75427;SDS011;64008;55.612;37.698;2022-10-17T02:54:16;8.02;;;2.88;;
75427;SDS011;64008;55.612;37.698;2022-10-17T02:56:50;6.93;;;2.90;;
75427;SDS011;64008;55.612;37.698;2022-10-17T02:59:20;4.13;;;1.88;;
75427;SDS011;64008;55.612;37.698;2022-10-17T03:01:49;6.82;;;2.78;;
75427;SDS011;64008;55.612;37.698;2022-10-17T03:04:16;7.43;;;2.95;;
75427;SDS011;64008;55.612;37.698;2022-10-17T03:06:42;8.65;;;3.13;;
75427;SDS011;64008;55.612;37.698;2022-10-17T03:09:10;7.15;;;2.78;;
75427;SDS011;64008;55.612;37.698;2022-10-17T03:11:36;4.05;;;2.15;;
75427;SDS011;64008;55.612;37.698;2022-10-17T03:14:01;5.53;;;2.35;;
75427;SDS011;64008;55.612;37.698;2022-10-17T03:16:27;5.22;;;2.58;;
75427;SDS011;64008;55.612;37.698;2022-10-17T03:18:53;8.57;;;2.92;;
75427;SDS011;64008;55.612;37.698;2022-10-17T03:21:18;4.93;;;2.53;;
75427;SDS011;64008;55.612;37.698;2022-10-17T03:23:44;6.22;;;2.58;;
75427;SDS011;64008;55.612;37.698;2022-10-17T03:26:09;7.93;;;3.40;;
75427;SDS011;64008;55.612;37.698;2022-10-17T03:28:35;7.65;;;2.60;;
75427;SDS011;64008;55.612;37.698;2022-10-17T03:31:05;5.10;;;2.10;;
75427;SDS011;64008;55.612;37.698;2022-10-17T03:33:32;6.72;;;1.60;;
75427;SDS011;64008;55.612;37.698;2022-10-17T03:35:57;6.68;;;2.13;;
75427;SDS011;64008;55.612;37.698;2022-10-17T03:38:23;7.03;;;3.08;;
75427;SDS011;64008;55.612;37.698;2022-10-17T03:40:54;7.32;;;2.35;;
75427;SDS011;64008;55.612;37.698;2022-10-17T03:43:20;5.22;;;2.15;;
75427;SDS011;64008;55.612;37.698;2022-10-17T03:45:45;4.28;;;1.92;;
75427;SDS011;64008;55.612;37.698;2022-10-17T03:48:11;7.70;;;2.88;;
75427;SDS011;64008;55.612;37.698;2022-10-17T03:50:36;8.98;;;3.35;;
75427;SDS011;64008;55.612;37.698;2022-10-17T03:53:01;6.90;;;2.88;;
75427;SDS011;64008;55.612;37.698;2022-10-17T03:55:27;8.48;;;3.55;;
75427;SDS011;64008;55.612;37.698;2022-10-17T03:57:52;7.50;;;3.10;;
75427;SDS011;64008;55.612;37.698;2022-10-17T04:00:18;5.93;;;2.60;;
75427;SDS011;64008;55.612;37.698;2022-10-17T04:02:43;9.07;;;3.15;;
75427;SDS011;64008;55.612;37.698;2022-10-17T04:05:09;9.80;;;2.88;;
75427;SDS011;64008;55.612;37.698;2022-10-17T04:07:34;8.15;;;3.47;;
75427;SDS011;64008;55.612;37.698;2022-10-17T04:10:01;8.80;;;3.53;;
75427;SDS011;64008;55.612;37.698;2022-10-17T04:12:27;9.88;;;2.40;;
75427;SDS011;64008;55.612;37.698;2022-10-17T04:14:53;6.28;;;2.92;;
75427;SDS011;64008;55.612;37.698;2022-10-17T04:17:18;4.50;;;1.67;;
75427;SDS011;64008;55.612;37.698;2022-10-17T04:19:44;6.00;;;2.55;;
75427;SDS011;64008;55.612;37.698;2022-10-17T04:22:09;5.97;;;2.45;;
75427;SDS011;64008;55.612;37.698;2022-10-17T04:24:35;9.02;;;3.03;;
75427;SDS011;64008;55.612;37.698;2022-10-17T04:27:00;9.02;;;3.40;;
75427;SDS011;64008;55.612;37.698;2022-10-17T04:29:26;9.85;;;3.30;;
75427;SDS011;64008;55.612;37.698;2022-10-17T04:31:51;6.80;;;2.15;;
75427;SDS011;64008;55.612;37.698;2022-10-17T04:34:17;6.75;;;3.22;;
75427;SDS011;64008;55.612;37.698;2022-10-17T04:36:42;7.88;;;2.88;;
75427;SDS011;64008;55.612;37.698;2022-10-17T04:39:08;4.72;;;2.13;;
75427;SDS011;64008;55.612;37.698;2022-10-17T04:41:34;6.32;;;2.47;;
75427;SDS011;64008;55.612;37.698;2022-10-17T04:43:59;8.88;;;3.15;;
75427;SDS011;64008;55.612;37.698;2022-10-17T04:46:25;9.98;;;3.28;;
75427;SDS011;64008;55.612;37.698;2022-10-17T04:48:50;9.00;;;3.45;;
75427;SDS011;64008;55.612;37.698;2022-10-17T04:51:16;10.02;;;3.70;;
75427;SDS011;64008;55.612;37.698;2022-10-17T04:53:43;8.68;;;3.75;;
75427;SDS011;64008;55.612;37.698;2022-10-17T04:56:10;7.30;;;3.35;;
75427;SDS011;64008;55.612;37.698;2022-10-17T04:58:38;7.93;;;3.63;;
75427;SDS011;64008;55.612;37.698;2022-10-17T05:01:05;10.43;;;3.78;;
75427;SDS011;64008;55.612;37.698;2022-10-17T05:03:35;11.15;;;3.45;;
75427;SDS011;64008;55.612;37.698;2022-10-17T05:06:20;6.97;;;2.97;;
75427;SDS011;64008;55.612;37.698;2022-10-17T05:08:47;8.05;;;3.78;;
75427;SDS011;64008;55.612;37.698;2022-10-17T05:11:20;8.52;;;3.45;;
75427;SDS011;64008;55.612;37.698;2022-10-17T05:13:49;7.32;;;2.80;;
75427;SDS011;64008;55.612;37.698;2022-10-17T05:16:18;6.50;;;2.88;;
75427;SDS011;64008;55.612;37.698;2022-10-17T05:18:48;9.15;;;3.45;;
75427;SDS011;64008;55.612;37.698;2022-10-17T05:21:15;9.00;;;3.17;;
75427;SDS011;64008;55.612;37.698;2022-10-17T05:23:41;6.47;;;2.78;;
75427;SDS011;64008;55.612;37.698;2022-10-17T05:26:06;8.13;;;3.50;;
75427;SDS011;64008;55.612;37.698;2022-10-17T05:28:32;7.63;;;2.75;;
75427;SDS011;64008;55.612;37.698;2022-10-17T05:31:02;4.00;;;1.88;;
75427;SDS011;64008;55.612;37.698;2022-10-17T05:33:28;6.13;;;2.25;;
75427;SDS011;64008;55.612;37.698;2022-10-17T05:35:54;7.82;;;2.85;;
75427;SDS011;64008;55.612;37.698;2022-10-17T05:38:19;7.95;;;3.40;;
75427;SDS011;64008;55.612;37.698;2022-10-17T05:40:45;8.00;;;3.47;;
75427;SDS011;64008;55.612;37.698;2022-10-17T05:43:10;7.22;;;3.28;;
75427;SDS011;64008;55.612;37.698;2022-10-17T05:45:36;7.00;;;3.08;;
75427;SDS011;64008;55.612;37.698;2022-10-17T05:48:02;10.93;;;3.70;;
75427;SDS011;64008;55.612;37.698;2022-10-17T05:50:27;5.85;;;2.30;;
75427;SDS011;64008;55.612;37.698;2022-10-17T05:52:53;5.45;;;2.65;;
75427;SDS011;64008;55.612;37.698;2022-10-17T05:55:19;8.30;;;3.67;;
75427;SDS011;64008;55.612;37.698;2022-10-17T05:57:45;7.32;;;3.35;;
75427;SDS011;64008;55.612;37.698;2022-10-17T06:00:11;13.00;;;3.80;;
75427;SDS011;64008;55.612;37.698;2022-10-17T06:02:37;9.63;;;2.70;;
75427;SDS011;64008;55.612;37.698;2022-10-17T06:05:03;6.63;;;2.67;;
75427;SDS011;64008;55.612;37.698;2022-10-17T06:07:28;7.05;;;3.13;;
75427;SDS011;64008;55.612;37.698;2022-10-17T06:09:54;7.47;;;3.70;;
75427;SDS011;64008;55.612;37.698;2022-10-17T06:12:19;6.82;;;2.95;;
75427;SDS011;64008;55.612;37.698;2022-10-17T06:14:45;8.43;;;3.42;;
75427;SDS011;64008;55.612;37.698;2022-10-17T06:17:10;6.63;;;2.90;;
75427;SDS011;64008;55.612;37.698;2022-10-17T06:19:36;7.80;;;2.78;;
75427;SDS011;64008;55.612;37.698;2022-10-17T06:22:02;8.73;;;3.60;;
75427;SDS011;64008;55.612;37.698;2022-10-17T06:24:27;11.32;;;3.38;;
75427;SDS011;64008;55.612;37.698;2022-10-17T06:26:53;7.18;;;2.78;;
75427;SDS011;64008;55.612;37.698;2022-10-17T06:29:18;6.90;;;2.83;;
75427;SDS011;64008;55.612;37.698;2022-10-17T06:31:44;4.32;;;2.25;;
75427;SDS011;64008;55.612;37.698;2022-10-17T06:34:10;10.48;;;3.45;;
75427;SDS011;64008;55.612;37.698;2022-10-17T06:36:35;5.28;;;2.08;;
75427;SDS011;64008;55.612;37.698;2022-10-17T06:39:01;7.57;;;1.90;;
75427;SDS011;64008;55.612;37.698;2022-10-17T06:41:26;7.43;;;2.95;;
75427;SDS011;64008;55.612;37.698;2022-10-17T06:43:52;7.18;;;3.40;;
75427;SDS011;64008;55.612;37.698;2022-10-17T06:46:17;7.90;;;3.25;;
75427;SDS011;64008;55.612;37.698;2022-10-17T06:48:43;8.75;;;2.72;;
75427;SDS011;64008;55.612;37.698;2022-10-17T06:51:09;7.35;;;2.63;;
75427;SDS011;64008;55.612;37.698;2022-10-17T06:53:36;7.35;;;3.08;;
75427;SDS011;64008;55.612;37.698;2022-10-17T06:56:02;5.03;;;2.17;;
75427;SDS011;64008;55.612;37.698;2022-10-17T06:58:33;9.18;;;4.25;;
75427;SDS011;64008;55.612;37.698;2022-10-17T07:03:26;4.82;;;2.17;;
75427;SDS011;64008;55.612;37.698;2022-10-17T07:05:52;10.68;;;3.70;;
75427;SDS011;64008;55.612;37.698;2022-10-17T07:08:18;10.85;;;3.58;;
75427;SDS011;64008;55.612;37.698;2022-10-17T07:10:44;3.70;;;1.55;;
75427;SDS011;64008;55.612;37.698;2022-10-17T07:13:10;7.65;;;2.97;;
75427;SDS011;64008;55.612;37.698;2022-10-17T07:15:36;7.32;;;2.13;;
75427;SDS011;64008;55.612;37.698;2022-10-17T07:18:01;9.15;;;2.65;;
75427;SDS011;64008;55.612;37.698;2022-10-17T07:20:27;7.07;;;2.38;;
75427;SDS011;64008;55.612;37.698;2022-10-17T07:22:52;6.75;;;2.55;;
75427;SDS011;64008;55.612;37.698;2022-10-17T07:25:18;4.45;;;1.40;;
75427;SDS011;64008;55.612;37.698;2022-10-17T07:27:43;4.95;;;2.30;;
75427;SDS011;64008;55.612;37.698;2022-10-17T07:30:09;6.47;;;2.75;;
75427;SDS011;64008;55.612;37.698;2022-10-17T07:32:35;7.18;;;2.53;;
75427;SDS011;64008;55.612;37.698;2022-10-17T07:35:00;5.68;;;2.30;;
75427;SDS011;64008;55.612;37.698;2022-10-17T07:37:26;6.63;;;2.67;;
75427;SDS011;64008;55.612;37.698;2022-10-17T07:39:51;10.13;;;2.40;;
75427;SDS011;64008;55.612;37.698;2022-10-17T07:42:17;6.95;;;2.95;;
75427;SDS011;64008;55.612;37.698;2022-10-17T07:44:42;6.28;;;2.03;;
75427;SDS011;64008;55.612;37.698;2022-10-17T07:47:11;7.22;;;2.25;;
75427;SDS011;64008;55.612;37.698;2022-10-17T07:49:36;8.75;;;3.22;;
75427;SDS011;64008;55.612;37.698;2022-10-17T07:52:08;4.70;;;1.88;;
75427;SDS011;64008;55.612;37.698;2022-10-17T07:54:39;6.53;;;2.65;;
75427;SDS011;64008;55.612;37.698;2022-10-17T07:57:05;5.90;;;2.10;;
75427;SDS011;64008;55.612;37.698;2022-10-17T07:59:31;9.20;;;2.53;;
75427;SDS011;64008;55.612;37.698;2022-10-17T08:04:23;5.43;;;2.08;;
75427;SDS011;64008;55.612;37.698;2022-10-17T08:06:50;6.10;;;2.28;;
75427;SDS011;64008;55.612;37.698;2022-10-17T08:09:16;5.47;;;2.03;;
75427;SDS011;64008;55.612;37.698;2022-10-17T08:11:41;6.90;;;2.85;;
75427;SDS011;64008;55.612;37.698;2022-10-17T08:14:10;3.80;;;1.50;;
75427;SDS011;64008;55.612;37.698;2022-10-17T08:19:02;6.28;;;2.75;;
75427;SDS011;64008;55.612;37.698;2022-10-17T08:21:29;5.20;;;1.52;;
75427;SDS011;64008;55.612;37.698;2022-10-17T08:23:54;4.60;;;2.08;;
75427;SDS011;64008;55.612;37.698;2022-10-17T08:26:20;5.20;;;2.25;;
75427;SDS011;64008;55.612;37.698;2022-10-17T08:28:46;3.17;;;1.52;;
75427;SDS011;64008;55.612;37.698;2022-10-17T08:31:14;8.57;;;2.97;;
75427;SDS011;64008;55.612;37.698;2022-10-17T08:33:45;5.55;;;1.63;;
75427;SDS011;64008;55.612;37.698;2022-10-17T08:36:12;4.63;;;1.83;;
75427;SDS011;64008;55.612;37.698;2022-10-17T08:38:39;7.53;;;3.10;;
75427;SDS011;64008;55.612;37.698;2022-10-17T08:41:32;9.32;;;3.10;;
75427;SDS011;64008;55.612;37.698;2022-10-17T08:46:42;4.72;;;1.67;;
75427;SDS011;64008;55.612;37.698;2022-10-17T08:52:23;6.57;;;2.67;;
75427;SDS011;64008;55.612;37.698;2022-10-17T08:55:17;7.38;;;2.92;;
75427;SDS011;64008;55.612;37.698;2022-10-17T08:58:27;10.43;;;4.65;;
75427;SDS011;64008;55.612;37.698;2022-10-17T09:06:32;7.25;;;3.28;;
75427;SDS011;64008;55.612;37.698;2022-10-17T09:09:08;11.80;;;4.60;;
75427;SDS011;64008;55.612;37.698;2022-10-17T09:17:02;10.52;;;4.28;;
75427;SDS011;64008;55.612;37.698;2022-10-17T09:19:52;3.22;;;1.52;;
75427;SDS011;64008;55.612;37.698;2022-10-17T09:22:27;7.82;;;3.58;;
75427;SDS011;64008;55.612;37.698;2022-10-17T09:24:59;10.00;;;4.50;;
75427;SDS011;64008;55.612;37.698;2022-10-17T09:27:50;10.55;;;3.15;;
75427;SDS011;64008;55.612;37.698;2022-10-17T09:32:52;9.52;;;3.40;;
75427;SDS011;64008;55.612;37.698;2022-10-17T09:35:17;11.73;;;3.90;;
75427;SDS011;64008;55.612;37.698;2022-10-17T09:37:46;10.07;;;4.55;;
75427;SDS011;64008;55.612;37.698;2022-10-17T09:40:26;7.50;;;3.35;;
75427;SDS011;64008;55.612;37.698;2022-10-17T09:43:00;11.95;;;4.55;;
75427;SDS011;64008;55.612;37.698;2022-10-17T09:45:29;12.98;;;5.13;;
75427;SDS011;64008;55.612;37.698;2022-10-17T09:50:37;6.32;;;2.28;;
75427;SDS011;64008;55.612;37.698;2022-10-17T09:56:06;10.52;;;4.25;;
75427;SDS011;64008;55.612;37.698;2022-10-17T09:58:39;8.82;;;4.43;;
75427;SDS011;64008;55.612;37.698;2022-10-17T10:04:13;11.82;;;4.78;;
75427;SDS011;64008;55.612;37.698;2022-10-17T10:06:59;15.77;;;4.28;;
75427;SDS011;64008;55.612;37.698;2022-10-17T10:09:27;10.00;;;4.85;;
75427;SDS011;64008;55.612;37.698;2022-10-17T10:11:55;6.50;;;3.50;;
75427;SDS011;64008;55.612;37.698;2022-10-17T10:16:53;10.70;;;4.63;;
75427;SDS011;64008;55.612;37.698;2022-10-17T10:19:37;11.57;;;4.47;;
75427;SDS011;64008;55.612;37.698;2022-10-17T10:22:04;5.70;;;2.38;;
75427;SDS011;64008;55.612;37.698;2022-10-17T10:24:31;7.35;;;3.00;;
75427;SDS011;64008;55.612;37.698;2022-10-17T10:27:03;9.02;;;4.03;;
75427;SDS011;64008;55.612;37.698;2022-10-17T10:29:41;11.32;;;6.60;;
75427;SDS011;64008;55.612;37.698;2022-10-17T10:32:17;8.15;;;3.38;;
75427;SDS011;64008;55.612;37.698;2022-10-17T10:34:55;9.85;;;4.32;;
75427;SDS011;64008;55.612;37.698;2022-10-17T10:37:25;11.98;;;4.38;;
75427;SDS011;64008;55.612;37.698;2022-10-17T10:47:24;9.07;;;3.55;;
75427;SDS011;64008;55.612;37.698;2022-10-17T10:50:39;7.07;;;3.33;;
75427;SDS011;64008;55.612;37.698;2022-10-17T10:56:02;11.48;;;4.95;;
75427;SDS011;64008;55.612;37.698;2022-10-17T10:59:16;12.55;;;5.80;;
75427;SDS011;64008;55.612;37.698;2022-10-17T11:01:30;10.38;;;4.85;;
75427;SDS011;64008;55.612;37.698;2022-10-17T11:07:08;6.60;;;3.13;;
75427;SDS011;64008;55.612;37.698;2022-10-17T11:09:46;12.68;;;3.50;;
75427;SDS011;64008;55.612;37.698;2022-10-17T11:12:24;12.57;;;5.63;;
75427;SDS011;64008;55.612;37.698;2022-10-17T11:15:03;6.72;;;2.92;;
75427;SDS011;64008;55.612;37.698;2022-10-17T11:17:44;6.93;;;4.13;;
75427;SDS011;64008;55.612;37.698;2022-10-17T11:23:01;14.57;;;5.70;;
75427;SDS011;64008;55.612;37.698;2022-10-17T11:25:52;9.55;;;3.20;;
75427;SDS011;64008;55.612;37.698;2022-10-17T11:28:21;7.72;;;4.22;;
75427;SDS011;64008;55.612;37.698;2022-10-17T11:33:48;8.02;;;3.65;;
75427;SDS011;64008;55.612;37.698;2022-10-17T11:36:11;8.80;;;4.88;;
75427;SDS011;64008;55.612;37.698;2022-10-17T11:38:42;12.25;;;6.13;;
75427;SDS011;64008;55.612;37.698;2022-10-17T11:41:18;6.35;;;3.03;;
75427;SDS011;64008;55.612;37.698;2022-10-17T11:44:11;13.02;;;5.47;;
75427;SDS011;64008;55.612;37.698;2022-10-17T11:46:58;10.05;;;4.53;;
75427;SDS011;64008;55.612;37.698;2022-10-17T11:49:31;11.90;;;4.32;;
75427;SDS011;64008;55.612;37.698;2022-10-17T11:54:44;13.00;;;5.70;;
75427;SDS011;64008;55.612;37.698;2022-10-17T12:00:21;13.48;;;6.00;;
75427;SDS011;64008;55.612;37.698;2022-10-17T12:05:31;13.40;;;5.95;;
75427;SDS011;64008;55.612;37.698;2022-10-17T12:08:12;17.70;;;8.70;;
75427;SDS011;64008;55.612;37.698;2022-10-17T12:13:53;13.40;;;5.35;;
75427;SDS011;64008;55.612;37.698;2022-10-17T12:21:27;11.98;;;6.55;;
75427;SDS011;64008;55.612;37.698;2022-10-17T12:24:19;6.95;;;3.83;;
75427;SDS011;64008;55.612;37.698;2022-10-17T12:30:27;14.32;;;6.20;;
75427;SDS011;64008;55.612;37.698;2022-10-17T12:35:28;14.73;;;7.20;;
75427;SDS011;64008;55.612;37.698;2022-10-17T12:37:59;11.95;;;5.63;;
75427;SDS011;64008;55.612;37.698;2022-10-17T12:53:45;14.27;;;6.53;;
75427;SDS011;64008;55.612;37.698;2022-10-17T12:56:51;16.83;;;8.18;;
75427;SDS011;64008;55.612;37.698;2022-10-17T13:02:02;17.52;;;7.00;;
75427;SDS011;64008;55.612;37.698;2022-10-17T13:04:28;14.70;;;7.53;;
75427;SDS011;64008;55.612;37.698;2022-10-17T13:06:56;17.65;;;8.95;;
75427;SDS011;64008;55.612;37.698;2022-10-17T13:09:24;18.25;;;9.15;;
75427;SDS011;64008;55.612;37.698;2022-10-17T13:11:50;16.38;;;8.65;;
75427;SDS011;64008;55.612;37.698;2022-10-17T13:14:18;19.17;;;9.75;;
75427;SDS011;64008;55.612;37.698;2022-10-17T13:17:01;15.80;;;7.18;;
75427;SDS011;64008;55.612;37.698;2022-10-17T13:19:31;14.27;;;6.25;;
75427;SDS011;64008;55.612;37.698;2022-10-17T13:22:09;16.58;;;7.05;;
75427;SDS011;64008;55.612;37.698;2022-10-17T13:24:40;18.77;;;9.25;;
75427;SDS011;64008;55.612;37.698;2022-10-17T13:27:22;18.92;;;8.85;;
75427;SDS011;64008;55.612;37.698;2022-10-17T13:29:51;16.88;;;8.48;;
75427;SDS011;64008;55.612;37.698;2022-10-17T13:32:20;21.23;;;7.78;;
75427;SDS011;64008;55.612;37.698;2022-10-17T13:34:46;21.50;;;8.13;;
75427;SDS011;64008;55.612;37.698;2022-10-17T13:37:30;18.25;;;7.35;;
75427;SDS011;64008;55.612;37.698;2022-10-17T13:39:55;26.58;;;10.52;;
75427;SDS011;64008;55.612;37.698;2022-10-17T13:42:26;16.95;;;7.25;;
75427;SDS011;64008;55.612;37.698;2022-10-17T13:45:00;16.92;;;8.30;;
75427;SDS011;64008;55.612;37.698;2022-10-17T13:47:27;18.70;;;9.75;;
75427;SDS011;64008;55.612;37.698;2022-10-17T13:49:54;17.52;;;8.55;;
75427;SDS011;64008;55.612;37.698;2022-10-17T13:52:25;24.15;;;10.52;;
75427;SDS011;64008;55.612;37.698;2022-10-17T13:54:53;20.75;;;8.57;;
75427;SDS011;64008;55.612;37.698;2022-10-17T13:57:24;19.60;;;8.95;;
75427;SDS011;64008;55.612;37.698;2022-10-17T13:59:52;21.25;;;9.80;;
75427;SDS011;64008;55.612;37.698;2022-10-17T14:02:24;18.83;;;9.68;;
75427;SDS011;64008;55.612;37.698;2022-10-17T14:12:59;15.02;;;5.80;;
75427;SDS011;64008;55.612;37.698;2022-10-17T14:15:28;7.70;;;2.67;;
75427;SDS011;64008;55.612;37.698;2022-10-17T14:18:00;14.70;;;7.20;;
75427;SDS011;64008;55.612;37.698;2022-10-17T14:20:29;16.92;;;7.55;;
75427;SDS011;64008;55.612;37.698;2022-10-17T14:22:55;20.20;;;8.55;;
75427;SDS011;64008;55.612;37.698;2022-10-17T14:25:32;15.20;;;7.70;;
75427;SDS011;64008;55.612;37.698;2022-10-17T14:30:43;14.38;;;6.50;;
75427;SDS011;64008;55.612;37.698;2022-10-17T14:35:56;12.68;;;5.88;;
75427;SDS011;64008;55.612;37.698;2022-10-17T14:38:24;13.55;;;5.88;;
75427;SDS011;64008;55.612;37.698;2022-10-17T14:40:54;13.77;;;5.70;;
75427;SDS011;64008;55.612;37.698;2022-10-17T14:43:24;12.05;;;5.55;;
75427;SDS011;64008;55.612;37.698;2022-10-17T14:45:55;14.35;;;6.50;;
75427;SDS011;64008;55.612;37.698;2022-10-17T14:48:22;14.07;;;6.05;;
75427;SDS011;64008;55.612;37.698;2022-10-17T14:53:30;10.07;;;4.70;;
75427;SDS011;64008;55.612;37.698;2022-10-17T14:55:56;12.52;;;5.22;;
75427;SDS011;64008;55.612;37.698;2022-10-17T14:58:28;12.30;;;6.75;;
75427;SDS011;64008;55.612;37.698;2022-10-17T15:00:56;18.20;;;8.15;;
75427;SDS011;64008;55.612;37.698;2022-10-17T15:03:23;16.42;;;7.13;;
75427;SDS011;64008;55.612;37.698;2022-10-17T15:05:49;14.38;;;7.03;;
75427;SDS011;64008;55.612;37.698;2022-10-17T15:08:16;10.90;;;5.00;;
75427;SDS011;64008;55.612;37.698;2022-10-17T15:10:43;21.00;;;8.48;;
75427;SDS011;64008;55.612;37.698;2022-10-17T15:13:10;22.63;;;9.40;;
75427;SDS011;64008;55.612;37.698;2022-10-17T15:15:36;19.33;;;8.63;;
75427;SDS011;64008;55.612;37.698;2022-10-17T15:18:03;16.45;;;7.35;;
75427;SDS011;64008;55.612;37.698;2022-10-17T15:20:29;18.80;;;9.00;;
75427;SDS011;64008;55.612;37.698;2022-10-17T15:22:59;22.20;;;10.65;;
75427;SDS011;64008;55.612;37.698;2022-10-17T15:25:26;22.67;;;10.45;;
75427;SDS011;64008;55.612;37.698;2022-10-17T15:27:53;16.35;;;6.97;;
75427;SDS011;64008;55.612;37.698;2022-10-17T15:30:29;13.75;;;6.70;;
75427;SDS011;64008;55.612;37.698;2022-10-17T15:32:56;20.88;;;10.98;;
75427;SDS011;64008;55.612;37.698;2022-10-17T15:35:23;18.33;;;8.65;;
75427;SDS011;64008;55.612;37.698;2022-10-17T15:37:49;17.05;;;8.15;;
75427;SDS011;64008;55.612;37.698;2022-10-17T15:40:16;22.45;;;9.73;;
75427;SDS011;64008;55.612;37.698;2022-10-17T15:42:47;22.52;;;8.57;;
75427;SDS011;64008;55.612;37.698;2022-10-17T15:45:14;17.52;;;8.05;;
75427;SDS011;64008;55.612;37.698;2022-10-17T15:47:42;11.73;;;5.07;;
75427;SDS011;64008;55.612;37.698;2022-10-17T15:50:13;18.27;;;7.57;;
75427;SDS011;64008;55.612;37.698;2022-10-17T15:52:40;22.00;;;11.10;;
75427;SDS011;64008;55.612;37.698;2022-10-17T15:55:06;19.05;;;8.07;;
75427;SDS011;64008;55.612;37.698;2022-10-17T16:00:00;16.80;;;7.97;;
75427;SDS011;64008;55.612;37.698;2022-10-17T16:02:26;10.73;;;5.07;;
75427;SDS011;64008;55.612;37.698;2022-10-17T16:04:51;24.90;;;11.88;;
75427;SDS011;64008;55.612;37.698;2022-10-17T16:07:18;21.38;;;10.32;;
75427;SDS011;64008;55.612;37.698;2022-10-17T16:09:44;13.55;;;5.88;;
75427;SDS011;64008;55.612;37.698;2022-10-17T16:12:12;25.80;;;12.73;;
75427;SDS011;64008;55.612;37.698;2022-10-17T16:14:45;17.85;;;7.75;;
75427;SDS011;64008;55.612;37.698;2022-10-17T16:17:14;32.60;;;12.85;;
75427;SDS011;64008;55.612;37.698;2022-10-17T16:19:40;22.65;;;10.38;;
75427;SDS011;64008;55.612;37.698;2022-10-17T16:22:09;18.83;;;8.82;;
75427;SDS011;64008;55.612;37.698;2022-10-17T16:24:43;21.80;;;10.63;;
75427;SDS011;64008;55.612;37.698;2022-10-17T16:27:08;17.33;;;7.50;;
75427;SDS011;64008;55.612;37.698;2022-10-17T16:29:34;12.25;;;6.25;;
75427;SDS011;64008;55.612;37.698;2022-10-17T16:31:59;21.65;;;11.00;;
75427;SDS011;64008;55.612;37.698;2022-10-17T16:34:25;18.88;;;9.55;;
75427;SDS011;64008;55.612;37.698;2022-10-17T16:36:50;19.92;;;7.45;;
75427;SDS011;64008;55.612;37.698;2022-10-17T16:39:16;21.73;;;9.88;;
75427;SDS011;64008;55.612;37.698;2022-10-17T16:41:41;16.30;;;9.52;;
75427;SDS011;64008;55.612;37.698;2022-10-17T16:44:07;18.67;;;9.40;;
75427;SDS011;64008;55.612;37.698;2022-10-17T16:46:35;21.35;;;10.00;;
75427;SDS011;64008;55.612;37.698;2022-10-17T16:49:02;14.77;;;7.43;;
75427;SDS011;64008;55.612;37.698;2022-10-17T16:51:29;17.20;;;7.38;;
75427;SDS011;64008;55.612;37.698;2022-10-17T16:53:55;13.43;;;7.40;;
75427;SDS011;64008;55.612;37.698;2022-10-17T16:56:25;19.50;;;10.00;;
75427;SDS011;64008;55.612;37.698;2022-10-17T16:58:56;21.30;;;12.07;;
75427;SDS011;64008;55.612;37.698;2022-10-17T17:01:23;17.30;;;6.90;;
75427;SDS011;64008;55.612;37.698;2022-10-17T17:03:50;13.50;;;6.40;;
75427;SDS011;64008;55.612;37.698;2022-10-17T17:06:18;27.70;;;13.45;;
75427;SDS011;64008;55.612;37.698;2022-10-17T17:08:45;18.77;;;8.30;;
75427;SDS011;64008;55.612;37.698;2022-10-17T17:11:11;23.88;;;10.50;;
75427;SDS011;64008;55.612;37.698;2022-10-17T17:13:40;17.48;;;6.20;;
75427;SDS011;64008;55.612;37.698;2022-10-17T17:16:07;13.52;;;4.95;;